createdAt,value
2023-01-26T00:01:51.171Z,0.70
2023-01-26T00:04:19.056Z,0.70
2023-01-26T00:06:46.963Z,0.80
2023-01-26T00:09:15.678Z,0.80
2023-01-26T00:11:45.022Z,0.80
2023-01-26T00:14:12.921Z,0.80
2023-01-26T00:16:40.971Z,0.70
2023-01-26T00:19:09.059Z,0.70
2023-01-26T00:21:37.016Z,0.80
2023-01-26T00:24:05.562Z,0.80
2023-01-26T00:26:33.582Z,0.80
2023-01-26T00:29:02.823Z,0.80
2023-01-26T00:31:30.835Z,0.80
2023-01-26T00:33:58.871Z,0.80
2023-01-26T00:36:27.604Z,0.80
2023-01-26T00:38:55.549Z,0.80
2023-01-26T00:41:41.443Z,0.80
2023-01-26T00:44:10.729Z,0.80
2023-01-26T00:46:39.133Z,0.80
2023-01-26T00:49:07.173Z,0.80
2023-01-26T00:51:35.075Z,0.80
2023-01-26T00:54:02.989Z,0.80
2023-01-26T00:56:30.930Z,0.80
2023-01-26T00:58:58.838Z,0.80
2023-01-26T01:01:28.633Z,0.80
2023-01-26T01:03:56.549Z,0.90
2023-01-26T01:06:24.500Z,0.90
2023-01-26T01:08:52.455Z,0.90
2023-01-26T01:11:20.407Z,0.80
2023-01-26T01:13:48.367Z,0.80
2023-01-26T01:16:18.019Z,0.80
2023-01-26T01:18:47.347Z,0.80
2023-01-26T01:21:18.286Z,0.90
2023-01-26T01:23:46.388Z,0.90
2023-01-26T01:26:15.634Z,0.80
2023-01-26T01:28:44.812Z,0.90
2023-01-26T01:31:15.085Z,0.90
2023-01-26T01:33:43.800Z,0.90
2023-01-26T01:36:15.040Z,0.90
2023-01-26T01:38:43.884Z,0.90
2023-01-26T01:41:12.765Z,0.90
2023-01-26T01:43:41.039Z,0.90
2023-01-26T01:46:16.600Z,0.90
2023-01-26T01:48:51.434Z,0.90
2023-01-26T01:51:27.187Z,0.90
2023-01-26T01:53:57.882Z,0.90
2023-01-26T01:56:29.901Z,0.90
2023-01-26T01:59:00.287Z,0.90
2023-01-26T02:01:32.921Z,0.90
2023-01-26T02:04:03.284Z,0.90
2023-01-26T02:06:37.714Z,0.90
2023-01-26T02:09:07.615Z,0.90
2023-01-26T02:11:40.385Z,0.90
2023-01-26T02:14:10.764Z,0.90
2023-01-26T02:16:39.976Z,0.90
2023-01-26T02:19:15.679Z,0.80
2023-01-26T02:21:47.804Z,0.80
2023-01-26T02:24:23.642Z,0.80
2023-01-26T02:26:55.586Z,0.80
2023-01-26T02:29:24.262Z,0.70
2023-01-26T02:31:53.655Z,0.80
2023-01-26T02:34:24.147Z,0.80
2023-01-26T02:36:58.193Z,0.80
2023-01-26T02:39:39.989Z,0.80
2023-01-26T02:42:26.826Z,0.80
2023-01-26T02:44:55.168Z,0.80
2023-01-26T02:47:23.109Z,0.80
2023-01-26T02:49:51.046Z,0.80
2023-01-26T02:52:21.490Z,0.70
2023-01-26T02:55:06.767Z,0.70
2023-01-26T02:57:36.093Z,0.70
2023-01-26T03:00:04.740Z,0.70
2023-01-26T03:02:32.652Z,0.70
2023-01-26T03:05:00.577Z,0.70
2023-01-26T03:07:28.565Z,0.70
2023-01-26T03:09:58.818Z,0.70
2023-01-26T03:12:27.283Z,0.70
2023-01-26T03:15:10.492Z,0.70
2023-01-26T03:17:38.592Z,0.70
2023-01-26T03:20:25.340Z,0.70
2023-01-26T03:23:10.101Z,0.70
2023-01-26T03:25:55.419Z,0.70
2023-01-26T03:28:23.484Z,0.70
2023-01-26T03:30:54.895Z,0.70
2023-01-26T03:33:23.192Z,0.70
2023-01-26T03:35:54.933Z,0.70
2023-01-26T03:38:23.209Z,0.60
2023-01-26T03:41:08.628Z,0.60
2023-01-26T03:43:54.161Z,0.60
2023-01-26T03:46:41.063Z,0.60
2023-01-26T03:49:26.642Z,0.60
2023-01-26T03:52:11.884Z,0.60
2023-01-26T03:54:57.500Z,0.60
2023-01-26T03:57:25.473Z,0.60
2023-01-26T03:59:53.377Z,0.60
2023-01-26T04:02:39.917Z,0.70
2023-01-26T04:05:26.378Z,0.70
2023-01-26T04:08:12.040Z,0.70
2023-01-26T04:10:40.384Z,0.70
2023-01-26T04:13:26.007Z,0.70
2023-01-26T04:16:11.642Z,0.70
2023-01-26T04:18:58.648Z,0.70
2023-01-26T04:21:30.243Z,0.70
2023-01-26T04:23:59.357Z,0.70
2023-01-26T04:26:34.660Z,0.70
2023-01-26T04:29:03.475Z,0.80
2023-01-26T04:31:31.506Z,0.80
2023-01-26T04:34:01.617Z,0.80
2023-01-26T04:36:29.716Z,0.80
2023-01-26T04:38:58.329Z,0.90
2023-01-26T04:41:26.239Z,0.80
2023-01-26T04:43:54.208Z,0.80
2023-01-26T04:46:22.545Z,0.80
2023-01-26T04:48:50.539Z,0.80
2023-01-26T04:51:21.231Z,0.80
2023-01-26T04:53:49.738Z,0.80
2023-01-26T04:56:23.088Z,0.80
2023-01-26T04:58:51.708Z,0.80
2023-01-26T05:01:19.846Z,0.80
2023-01-26T05:03:48.674Z,1.10
2023-01-26T05:06:17.147Z,0.70
2023-01-26T05:08:46.480Z,0.80
2023-01-26T05:11:14.546Z,1.20
2023-01-26T05:13:42.477Z,0.80
2023-01-26T05:16:13.956Z,0.90
2023-01-26T05:21:11.579Z,0.90
2023-01-26T05:23:40.488Z,1.00
2023-01-26T05:26:10.018Z,0.90
2023-01-26T05:28:38.030Z,0.90
2023-01-26T05:31:06.294Z,0.90
2023-01-26T05:33:34.306Z,0.90
2023-01-26T05:36:05.887Z,0.90
2023-01-26T05:38:34.297Z,0.90
2023-01-26T05:41:02.657Z,1.00
2023-01-26T05:43:31.938Z,1.00
2023-01-26T05:45:59.912Z,1.00
2023-01-26T05:48:27.908Z,1.00
2023-01-26T05:50:57.931Z,1.00
2023-01-26T05:53:26.238Z,1.00
2023-01-26T05:55:54.213Z,1.10
2023-01-26T05:58:22.180Z,1.10
2023-01-26T06:00:51.451Z,1.10
2023-01-26T06:03:19.380Z,1.10
2023-01-26T06:05:53.957Z,1.10
2023-01-26T06:08:21.961Z,1.10
2023-01-26T06:10:49.885Z,1.00
2023-01-26T06:13:17.797Z,1.00
2023-01-26T06:15:45.864Z,1.00
2023-01-26T06:18:15.187Z,1.00
2023-01-26T06:20:44.349Z,1.00
2023-01-26T06:23:12.777Z,1.00
2023-01-26T06:25:40.718Z,1.00
2023-01-26T06:28:08.668Z,1.00
2023-01-26T06:30:36.680Z,1.00
2023-01-26T06:33:06.939Z,1.10
2023-01-26T06:35:37.213Z,1.10
2023-01-26T06:38:05.425Z,1.10
2023-01-26T06:40:33.424Z,1.10
2023-01-26T06:43:01.317Z,1.10
2023-01-26T06:45:29.370Z,1.10
2023-01-26T06:47:57.355Z,1.10
2023-01-26T06:50:32.621Z,1.10
2023-01-26T06:53:05.028Z,1.10
2023-01-26T06:55:37.227Z,1.10
2023-01-26T06:58:05.350Z,1.10
2023-01-26T07:00:33.450Z,1.10
2023-01-26T07:03:01.572Z,1.10
2023-01-26T07:05:29.540Z,1.10
2023-01-26T07:07:57.524Z,1.10
2023-01-26T07:10:26.795Z,1.10
2023-01-26T07:12:54.833Z,1.10
2023-01-26T07:15:22.904Z,1.20
2023-01-26T07:17:50.790Z,1.20
2023-01-26T07:20:19.001Z,1.20
2023-01-26T07:22:47.107Z,1.20
2023-01-26T07:25:15.227Z,1.20
2023-01-26T07:27:44.535Z,1.20
2023-01-26T07:30:14.636Z,1.20
2023-01-26T07:32:42.653Z,1.20
2023-01-26T07:35:10.756Z,1.20
2023-01-26T07:37:38.665Z,1.20
2023-01-26T07:40:07.792Z,1.20
2023-01-26T07:42:35.749Z,1.20
2023-01-26T07:45:05.542Z,1.20
2023-01-26T07:47:33.431Z,1.20
2023-01-26T07:50:01.366Z,1.20
2023-01-26T07:52:29.285Z,1.20
2023-01-26T07:54:57.287Z,1.30
2023-01-26T07:57:25.249Z,1.30
2023-01-26T07:59:53.407Z,1.30
2023-01-26T08:02:22.668Z,1.40
2023-01-26T08:04:50.743Z,1.40
2023-01-26T08:07:18.855Z,1.40
2023-01-26T08:09:46.883Z,1.50
2023-01-26T08:12:14.873Z,1.50
2023-01-26T08:14:47.006Z,1.60
2023-01-26T08:17:17.408Z,1.60
2023-01-26T08:19:47.150Z,1.60
2023-01-26T08:22:15.312Z,1.60
2023-01-26T08:24:43.270Z,1.60
2023-01-26T08:27:11.184Z,1.60
2023-01-26T08:29:39.210Z,1.60
2023-01-26T08:32:08.208Z,1.60
2023-01-26T08:34:36.332Z,1.60
2023-01-26T08:37:05.852Z,1.60
2023-01-26T08:39:33.804Z,1.60
2023-01-26T08:42:01.738Z,1.70
2023-01-26T08:44:29.643Z,1.70
2023-01-26T08:46:57.543Z,1.70
2023-01-26T08:49:25.502Z,1.70
2023-01-26T08:51:53.502Z,1.70
2023-01-26T08:54:22.779Z,1.80
2023-01-26T08:56:50.720Z,1.80
2023-01-26T08:59:18.700Z,1.80
2023-01-26T09:01:46.610Z,1.80
2023-01-26T09:04:14.599Z,1.80
2023-01-26T09:06:42.503Z,1.80
2023-01-26T09:09:13.204Z,1.80
2023-01-26T09:11:42.475Z,1.80
2023-01-26T09:14:10.493Z,1.80
2023-01-26T09:16:38.692Z,1.80
2023-01-26T09:19:06.807Z,1.80
2023-01-26T09:21:34.732Z,1.80
2023-01-26T09:24:02.754Z,1.80
2023-01-26T09:26:31.120Z,1.70
2023-01-26T09:29:00.415Z,1.80
2023-01-26T09:31:28.528Z,1.80
2023-01-26T09:33:56.499Z,1.80
2023-01-26T09:36:24.474Z,1.90
2023-01-26T09:38:54.113Z,1.90
2023-01-26T09:41:39.496Z,1.90
2023-01-26T09:44:11.449Z,1.90
2023-01-26T09:46:50.347Z,1.90
2023-01-26T09:49:22.963Z,1.90
2023-01-26T09:51:58.745Z,1.90
2023-01-26T09:54:33.338Z,1.90
2023-01-26T09:57:03.432Z,1.90
2023-01-26T09:59:39.190Z,1.90
2023-01-26T10:02:21.737Z,1.90
2023-01-26T10:04:52.961Z,1.90
2023-01-26T10:07:21.268Z,1.90
2023-01-26T10:09:51.925Z,1.90
2023-01-26T10:12:24.575Z,1.90
2023-01-26T10:15:10.037Z,1.90
2023-01-26T10:17:40.944Z,1.90
2023-01-26T10:20:19.041Z,1.90
2023-01-26T10:22:49.787Z,2.00
2023-01-26T10:25:20.128Z,2.00
2023-01-26T10:27:48.204Z,2.00
2023-01-26T10:30:20.010Z,2.00
2023-01-26T10:32:51.820Z,2.00
2023-01-26T10:35:21.662Z,2.10
2023-01-26T10:37:50.145Z,2.10
2023-01-26T10:40:18.506Z,2.10
2023-01-26T10:42:56.285Z,2.10
2023-01-26T10:45:33.312Z,2.10
2023-01-26T10:48:06.956Z,2.10
2023-01-26T10:50:35.167Z,2.10
2023-01-26T10:53:05.763Z,2.30
2023-01-26T10:55:39.203Z,2.00
2023-01-26T10:58:07.136Z,2.10
2023-01-26T11:00:37.149Z,2.00
2023-01-26T11:03:17.107Z,2.00
2023-01-26T11:05:48.091Z,2.00
2023-01-26T11:08:32.622Z,2.00
2023-01-26T11:11:00.533Z,2.00
2023-01-26T11:13:28.639Z,2.00
2023-01-26T11:16:10.175Z,1.90
2023-01-26T11:18:44.460Z,2.00
2023-01-26T11:21:17.285Z,2.00
2023-01-26T11:23:58.641Z,2.00
2023-01-26T11:26:51.647Z,2.10
2023-01-26T11:29:52.097Z,2.10
2023-01-26T11:32:32.539Z,2.10
2023-01-26T11:35:13.741Z,2.10
2023-01-26T11:37:46.717Z,2.20
2023-01-26T11:40:25.088Z,2.20
2023-01-26T11:43:21.339Z,2.20
2023-01-26T11:46:04.813Z,2.20
2023-01-26T11:48:45.155Z,2.20
2023-01-26T11:51:21.583Z,2.30
2023-01-26T11:54:03.509Z,2.20
2023-01-26T11:56:43.300Z,2.20
2023-01-26T11:59:15.367Z,2.20
2023-01-26T12:01:47.892Z,2.10
2023-01-26T12:04:20.681Z,2.10
2023-01-26T12:06:54.100Z,2.20
2023-01-26T12:09:32.655Z,2.20
2023-01-26T12:12:06.173Z,2.10
2023-01-26T12:14:39.653Z,2.10
2023-01-26T12:17:34.912Z,2.10
2023-01-26T12:20:15.259Z,2.10
2023-01-26T12:22:47.831Z,2.10
2023-01-26T12:25:24.730Z,2.10
2023-01-26T12:27:59.908Z,2.10
2023-01-26T12:30:35.650Z,2.10
2023-01-26T12:33:03.810Z,2.10
2023-01-26T12:35:48.868Z,2.10
2023-01-26T12:38:24.139Z,2.10
2023-01-26T12:41:04.900Z,2.10
2023-01-26T12:43:46.061Z,2.00
2023-01-26T12:46:14.736Z,2.00
2023-01-26T12:48:46.005Z,2.00
2023-01-26T12:51:21.270Z,2.00
2023-01-26T12:53:55.885Z,2.00
2023-01-26T12:56:28.597Z,2.00
2023-01-26T12:58:59.581Z,2.00
2023-01-26T13:01:38.084Z,2.00
2023-01-26T13:04:10.308Z,2.00
2023-01-26T13:06:39.787Z,2.00
2023-01-26T13:09:21.864Z,2.00
2023-01-26T13:11:55.237Z,2.00
2023-01-26T13:14:29.184Z,2.00
2023-01-26T13:16:57.588Z,2.00
2023-01-26T13:19:52.283Z,2.00
2023-01-26T13:22:48.859Z,2.00
2023-01-26T13:25:19.636Z,2.00
2023-01-26T13:27:56.523Z,1.90
2023-01-26T13:30:44.158Z,1.90
2023-01-26T13:33:19.647Z,1.90
2023-01-26T13:35:48.465Z,2.00
2023-01-26T13:38:23.746Z,2.00
2023-01-26T13:40:51.827Z,2.00
2023-01-26T13:43:28.208Z,2.00
2023-01-26T13:46:07.234Z,2.00
2023-01-26T13:48:44.814Z,2.00
2023-01-26T13:51:16.883Z,2.10
2023-01-26T13:53:59.122Z,2.00
2023-01-26T13:56:30.677Z,2.00
2023-01-26T13:59:06.989Z,2.00
2023-01-26T14:01:35.404Z,2.00
2023-01-26T14:04:05.375Z,1.90
2023-01-26T14:06:34.073Z,1.90
2023-01-26T14:09:04.734Z,1.90
2023-01-26T14:11:34.837Z,1.90
2023-01-26T14:14:03.805Z,1.90
2023-01-26T14:16:33.380Z,1.90
2023-01-26T14:19:14.877Z,1.90
2023-01-26T14:21:51.696Z,1.90
2023-01-26T14:24:27.135Z,1.90
2023-01-26T14:26:55.265Z,1.90
2023-01-26T14:29:25.819Z,1.90
2023-01-26T14:31:55.840Z,1.90
2023-01-26T14:34:26.151Z,1.90
2023-01-26T14:37:14.187Z,1.90
2023-01-26T14:39:48.160Z,1.90
2023-01-26T14:42:18.294Z,1.90
2023-01-26T14:44:46.848Z,1.80
2023-01-26T14:47:18.936Z,1.90
2023-01-26T14:49:52.254Z,1.90
2023-01-26T14:52:25.302Z,1.80
2023-01-26T14:54:57.241Z,1.90
2023-01-26T14:57:28.131Z,1.80
2023-01-26T14:59:57.932Z,1.80
2023-01-26T15:02:28.360Z,1.90
2023-01-26T15:04:59.617Z,1.90
2023-01-26T15:07:37.182Z,1.80
2023-01-26T15:10:36.313Z,1.80
2023-01-26T15:13:19.366Z,1.80
2023-01-26T15:15:49.177Z,2.00
2023-01-26T15:18:20.232Z,1.80
2023-01-26T15:21:00.342Z,1.70
2023-01-26T15:23:30.798Z,1.80
2023-01-26T15:26:08.091Z,1.80
2023-01-26T15:28:37.140Z,2.30
2023-01-26T15:31:05.536Z,1.70
2023-01-26T15:33:49.571Z,1.30
2023-01-26T15:36:32.638Z,2.60
2023-01-26T15:39:19.560Z,1.70
2023-01-26T15:42:02.822Z,1.80
2023-01-26T15:44:30.819Z,1.50
2023-01-26T15:46:59.357Z,1.70
2023-01-26T15:49:27.275Z,1.60
2023-01-26T15:51:55.241Z,2.50
2023-01-26T15:54:23.167Z,1.70
2023-01-26T15:56:52.457Z,1.70
2023-01-26T15:59:20.380Z,1.70
2023-01-26T16:01:48.449Z,1.70
2023-01-26T16:04:16.411Z,1.70
2023-01-26T16:06:44.368Z,1.70
2023-01-26T16:09:12.298Z,1.70
2023-01-26T16:11:48.314Z,1.70
2023-01-26T16:14:17.844Z,1.70
2023-01-26T16:16:46.067Z,1.70
2023-01-26T16:19:26.211Z,1.70
2023-01-26T16:21:58.151Z,1.70
2023-01-26T16:24:26.153Z,1.70
2023-01-26T16:26:54.817Z,1.70
2023-01-26T16:29:24.058Z,1.70
2023-01-26T16:31:52.776Z,1.70
2023-01-26T16:34:20.736Z,1.80
2023-01-26T16:36:48.673Z,1.80
2023-01-26T16:39:17.167Z,1.80
2023-01-26T16:41:45.574Z,1.80
2023-01-26T16:44:15.121Z,1.80
2023-01-26T16:46:45.576Z,1.80
2023-01-26T16:49:15.727Z,1.80
2023-01-26T16:51:44.988Z,1.80
2023-01-26T16:54:13.356Z,1.80
2023-01-26T16:56:41.287Z,1.80
2023-01-26T16:59:09.206Z,1.70
2023-01-26T17:01:38.385Z,1.70
2023-01-26T17:04:07.657Z,1.70
2023-01-26T17:06:35.558Z,1.70
2023-01-26T17:09:03.704Z,1.70
2023-01-26T17:11:31.587Z,1.70
2023-01-26T17:14:00.004Z,1.70
2023-01-26T17:16:31.949Z,1.70
2023-01-26T17:19:00.257Z,1.70
2023-01-26T17:21:29.564Z,1.70
2023-01-26T17:23:58.894Z,1.70
2023-01-26T17:26:27.110Z,1.70
2023-01-26T17:28:56.687Z,1.70
2023-01-26T17:31:26.314Z,1.70
2023-01-26T17:33:55.868Z,1.70
2023-01-26T17:36:24.543Z,1.60
2023-01-26T17:38:54.203Z,1.60
2023-01-26T17:41:22.173Z,1.60
2023-01-26T17:43:51.317Z,1.60
2023-01-26T17:46:21.426Z,1.60
2023-01-26T17:48:50.593Z,1.60
2023-01-26T17:51:20.022Z,1.60
2023-01-26T17:53:50.225Z,1.60
2023-01-26T17:56:21.755Z,1.60
2023-01-26T17:58:51.163Z,1.60
2023-01-26T18:01:19.964Z,1.50
2023-01-26T18:03:47.965Z,1.50
2023-01-26T18:06:16.170Z,1.50
2023-01-26T18:08:44.145Z,1.50
2023-01-26T18:11:14.643Z,1.50
2023-01-26T18:13:44.672Z,1.50
2023-01-26T18:16:16.773Z,1.50
2023-01-26T18:18:45.433Z,1.60
2023-01-26T18:21:15.402Z,1.60
2023-01-26T18:23:45.963Z,1.60
2023-01-26T18:26:14.300Z,1.60
2023-01-26T18:28:44.582Z,1.50
2023-01-26T18:31:14.253Z,1.60
2023-01-26T18:33:42.345Z,1.50
2023-01-26T18:36:12.584Z,1.50
2023-01-26T18:38:41.276Z,1.60
2023-01-26T18:41:12.213Z,1.60
2023-01-26T18:43:40.939Z,1.60
2023-01-26T18:46:11.056Z,1.60
2023-01-26T18:48:39.207Z,1.60
2023-01-26T18:51:08.627Z,1.60
2023-01-26T18:53:38.599Z,1.50
2023-01-26T18:56:08.456Z,1.60
2023-01-26T18:58:37.618Z,1.60
2023-01-26T19:01:09.414Z,1.60
2023-01-26T19:03:41.617Z,1.60
2023-01-26T19:06:10.558Z,1.60
2023-01-26T19:08:38.855Z,1.60
2023-01-26T19:11:08.468Z,1.60
2023-01-26T19:13:36.757Z,1.60
2023-01-26T19:16:07.359Z,1.60
2023-01-26T19:18:37.996Z,1.60
2023-01-26T19:21:06.809Z,1.60
2023-01-26T19:23:36.907Z,1.60
2023-01-26T19:26:11.239Z,1.60
2023-01-26T19:28:41.504Z,1.60
2023-01-26T19:31:10.193Z,1.60
2023-01-26T19:33:40.199Z,1.60
2023-01-26T19:36:09.193Z,1.60
2023-01-26T19:38:39.679Z,1.60
2023-01-26T19:41:07.940Z,1.60
2023-01-26T19:43:35.936Z,1.80
2023-01-26T19:46:05.562Z,1.70
2023-01-26T19:48:33.532Z,1.70
2023-01-26T19:51:04.542Z,1.60
2023-01-26T19:53:33.756Z,1.60
2023-01-26T19:56:06.619Z,1.60
2023-01-26T19:58:34.975Z,1.70
2023-01-26T20:01:04.529Z,1.70
2023-01-26T20:03:32.880Z,1.70
2023-01-26T20:06:02.248Z,1.70
2023-01-26T20:08:31.163Z,1.70
2023-01-26T20:11:04.451Z,1.70
2023-01-26T20:13:32.606Z,1.70
2023-01-26T20:16:00.566Z,1.60
2023-01-26T20:18:28.727Z,1.60
2023-01-26T20:21:00.401Z,1.70
2023-01-26T20:23:30.376Z,1.70
2023-01-26T20:26:06.168Z,1.60
2023-01-26T20:28:34.679Z,1.60
2023-01-26T20:31:06.549Z,1.60
2023-01-26T20:33:34.930Z,1.60
2023-01-26T20:36:07.689Z,1.60
2023-01-26T20:38:37.560Z,1.60
2023-01-26T20:41:09.228Z,1.60
2023-01-26T20:43:39.687Z,1.60
2023-01-26T20:46:11.929Z,1.60
2023-01-26T20:48:40.362Z,1.60
2023-01-26T20:51:13.652Z,1.60
2023-01-26T20:53:43.747Z,1.50
2023-01-26T20:56:13.317Z,1.50
2023-01-26T20:58:43.942Z,1.50
2023-01-26T21:01:13.457Z,1.60
2023-01-26T21:03:42.045Z,1.50
2023-01-26T21:06:11.300Z,1.50
2023-01-26T21:08:39.861Z,1.50
2023-01-26T21:11:12.651Z,1.50
2023-01-26T21:13:41.739Z,1.50
2023-01-26T21:16:10.809Z,1.50
2023-01-26T21:18:38.798Z,1.50
2023-01-26T21:21:08.754Z,1.50
2023-01-26T21:23:36.800Z,1.50
2023-01-26T21:26:07.428Z,1.50
2023-01-26T21:28:37.014Z,1.50
2023-01-26T21:31:07.487Z,1.50
2023-01-26T21:33:38.608Z,1.50
2023-01-26T21:36:08.534Z,1.50
2023-01-26T21:38:38.248Z,1.40
2023-01-26T21:41:28.467Z,1.40
2023-01-26T21:43:58.621Z,1.40
2023-01-26T21:46:26.687Z,1.40
2023-01-26T21:48:54.631Z,1.40
2023-01-26T21:51:40.895Z,1.40
2023-01-26T21:54:08.844Z,1.40
2023-01-26T21:56:37.171Z,1.40
2023-01-26T21:59:08.327Z,1.30
2023-01-26T22:01:38.299Z,1.30
2023-01-26T22:04:08.530Z,1.30
2023-01-26T22:06:37.048Z,1.30
2023-01-26T22:09:05.732Z,1.30
2023-01-26T22:11:33.997Z,1.30
2023-01-26T22:14:02.176Z,1.40
2023-01-26T22:16:31.733Z,1.30
2023-01-26T22:18:59.783Z,1.40
2023-01-26T22:21:28.362Z,1.40
2023-01-26T22:23:56.479Z,1.30
2023-01-26T22:26:24.775Z,1.40
2023-01-26T22:28:53.735Z,1.30
2023-01-26T22:31:23.509Z,1.40
2023-01-26T22:33:53.347Z,1.40
2023-01-26T22:36:22.106Z,1.40
2023-01-26T22:38:50.940Z,1.40
2023-01-26T22:41:22.004Z,1.30
2023-01-26T22:43:51.246Z,1.30
2023-01-26T22:46:20.516Z,1.30
2023-01-26T22:48:48.974Z,1.30
2023-01-26T22:51:20.426Z,1.30
2023-01-26T22:53:50.439Z,1.30
2023-01-26T22:56:19.353Z,1.30
2023-01-26T22:58:57.658Z,1.40
2023-01-26T23:01:28.160Z,1.30
2023-01-26T23:03:56.863Z,1.30
2023-01-26T23:06:26.719Z,1.30
2023-01-26T23:08:54.839Z,1.30
2023-01-26T23:11:25.213Z,1.30
2023-01-26T23:13:54.997Z,1.30
2023-01-26T23:16:24.062Z,1.30
2023-01-26T23:18:52.919Z,1.20
2023-01-26T23:21:21.241Z,1.20
2023-01-26T23:23:50.953Z,1.20
2023-01-26T23:26:19.093Z,1.30
2023-01-26T23:28:47.033Z,1.30
2023-01-26T23:31:16.539Z,1.30
2023-01-26T23:33:45.079Z,1.30
2023-01-26T23:36:14.840Z,1.30
2023-01-26T23:38:44.567Z,1.30
2023-01-26T23:41:14.482Z,1.30
2023-01-26T23:43:42.483Z,1.30
2023-01-26T23:46:11.166Z,1.30
2023-01-26T23:48:42.251Z,1.30
2023-01-26T23:51:12.202Z,1.30
2023-01-26T23:53:40.227Z,1.30
2023-01-26T23:56:10.213Z,1.20
2023-01-26T23:58:39.558Z,1.20
